Time;durP1;ratioP1;P1;durP2;ratioP2;P2;SDS_P1;SDS_P2;PMS_P1;PMS_P2;Temp;Humidity;BMP_temperature;BMP_pressure;BME280_temperature;BME280_humidity;BME280_pressure;Samples;Min_cycle;Max_cycle;Signal;HPM_P1;HPM_P2
2021/04/28 00:01:41;;;;;;;7.90;3.55;;;;;;;7.95;54.09;99294.53;4280768;33;35869;-96
2021/04/28 00:04:15;;;;;;;7.70;3.87;;;;;;;8.16;53.59;99293.03;4305254;33;34682;-84
2021/04/28 00:06:49;;;;;;;8.43;4.07;;;;;;;8.10;53.61;99294.59;4317461;33;34500;-85
2021/04/28 00:09:22;;;;;;;11.25;3.33;;;;;;;8.08;53.92;99288.56;4317577;33;33531;-85
2021/04/28 00:11:54;;;;;;;7.57;3.08;;;;;;;7.85;54.57;99285.06;4293192;33;34444;-84
2021/04/28 00:14:27;;;;;;;4.18;2.78;;;;;;;8.20;53.33;99283.53;4319374;33;34479;-95
2021/04/28 00:17:00;;;;;;;9.48;3.55;;;;;;;7.81;54.69;99275.66;4283160;33;34926;-84
2021/04/28 00:19:33;;;;;;;5.12;2.85;;;;;;;8.11;53.62;99276.56;4294744;33;34116;-96
2021/04/28 00:22:06;;;;;;;6.62;3.90;;;;;;;7.85;54.13;99269.75;4283242;33;34397;-96
2021/04/28 00:24:40;;;;;;;4.07;2.85;;;;;;;7.78;54.29;99276.84;4282674;33;34300;-84
2021/04/28 00:27:13;;;;;;;5.72;3.42;;;;;;;7.97;52.94;99267.47;4293905;33;35511;-84
2021/04/28 00:29:46;;;;;;;5.07;3.05;;;;;;;7.82;53.71;99259.34;4319011;33;34179;-96
2021/04/28 00:32:20;;;;;;;5.55;3.20;;;;;;;7.71;53.25;99266.00;4296020;33;36221;-96
2021/04/28 00:35:04;;;;;;;6.78;3.90;;;;;;;7.48;53.43;99271.38;4283562;33;34005;-85
2021/04/28 00:37:37;;;;;;;6.22;3.53;;;;;;;7.68;53.19;99270.88;4317111;33;33467;-96
2021/04/28 00:40:16;;;;;;;4.32;2.78;;;;;;;7.23;54.11;99266.16;4305710;33;34928;-84
2021/04/28 00:42:48;;;;;;;6.75;4.03;;;;;;;7.04;54.67;99272.00;4318455;33;34688;-84
2021/04/28 00:45:21;;;;;;;5.68;3.67;;;;;;;6.86;55.08;99281.12;4306186;33;34692;-84
2021/04/28 00:47:54;;;;;;;6.55;3.15;;;;;;;6.89;54.92;99270.03;4306178;33;34283;-84
2021/04/28 00:50:32;;;;;;;6.47;3.40;;;;;;;6.99;54.72;99269.84;4318174;33;33175;-95
2021/04/28 00:53:06;;;;;;;5.75;3.17;;;;;;;6.93;54.54;99275.06;4282745;33;35227;-96
2021/04/28 00:55:47;;;;;;;5.43;3.15;;;;;;;6.82;54.56;99279.78;4295398;33;34435;-96
2021/04/28 00:58:22;;;;;;;6.03;3.33;;;;;;;6.44;55.94;99282.28;4294229;33;33834;-96
2021/04/28 01:00:57;;;;;;;4.90;3.17;;;;;;;6.73;54.63;99291.59;4294325;33;33452;-96
2021/04/28 01:03:31;;;;;;;5.72;3.37;;;;;;;6.29;55.72;99294.75;4306414;33;34399;-91
2021/04/28 01:06:05;;;;;;;4.18;3.03;;;;;;;6.08;56.07;99293.44;4305684;33;33688;-84
2021/04/28 01:08:41;;;;;;;9.82;2.78;;;;;;;6.43;55.11;99294.03;4303340;33;35926;-84
2021/04/28 01:11:16;;;;;;;3.83;2.40;;;;;;;6.13;55.92;99295.59;4305166;33;33518;-84
2021/04/28 01:13:52;;;;;;;5.32;3.37;;;;;;;6.51;54.89;99298.53;4306442;33;33585;-95
2021/04/28 01:16:28;;;;;;;5.70;2.50;;;;;;;6.25;55.63;99299.59;4305387;33;35350;-84
2021/04/28 01:19:05;;;;;;;7.57;2.90;;;;;;;6.11;56.21;99297.63;4305625;33;35179;-96
2021/04/28 01:21:41;;;;;;;6.35;3.37;;;;;;;5.87;56.63;99296.59;4304553;33;34105;-84
2021/04/28 01:24:14;;;;;;;7.43;3.22;;;;;;;5.97;56.29;99297.28;4306276;33;33269;-84
2021/04/28 01:26:54;;;;;;;4.72;2.80;;;;;;;6.26;55.33;99300.47;4305622;33;33720;-85
2021/04/28 01:29:28;;;;;;;11.32;3.35;;;;;;;6.21;55.49;99303.62;4303668;33;37232;-96
2021/04/28 01:32:04;;;;;;;4.95;2.97;;;;;;;6.05;55.55;99299.13;4295173;33;33110;-95
2021/04/28 01:34:39;;;;;;;5.37;3.20;;;;;;;6.09;55.17;99300.47;4294368;33;32901;-96
2021/04/28 01:37:14;;;;;;;7.28;4.47;;;;;;;5.99;55.53;99289.09;4294013;33;32904;-96
2021/04/28 01:39:50;;;;;;;4.28;2.90;;;;;;;5.52;56.36;99298.56;4293835;33;34429;-95
2021/04/28 01:42:26;;;;;;;6.95;3.08;;;;;;;5.84;55.44;99288.88;4293907;33;33576;-96
2021/04/28 01:45:01;;;;;;;3.50;2.58;;;;;;;5.78;55.14;99287.72;4283200;33;35712;-96
2021/04/28 01:47:37;;;;;;;6.00;3.20;;;;;;;5.60;55.60;99292.41;4294526;33;34641;-96
2021/04/28 01:50:17;;;;;;;4.47;2.65;;;;;;;5.65;55.76;99290.88;4295145;33;34206;-95
2021/04/28 01:52:52;;;;;;;9.77;2.65;;;;;;;5.58;55.92;99297.06;4284635;33;36235;-84
2021/04/28 01:55:26;;;;;;;3.47;2.37;;;;;;;5.56;55.69;99293.72;4308409;33;33780;-96
2021/04/28 01:58:21;;;;;;;4.20;3.00;;;;;;;5.46;55.90;99294.72;4286993;33;34804;-84
2021/04/28 02:00:55;;;;;;;4.10;2.42;;;;;;;5.12;56.64;99284.94;4287351;33;34712;-88
2021/04/28 02:03:35;;;;;;;4.25;2.75;;;;;;;5.24;56.45;99284.59;4298661;33;33546;-93
2021/04/28 02:06:10;;;;;;;4.62;2.35;;;;;;;4.76;57.91;99297.69;4298610;33;34656;-84
2021/04/28 02:08:45;;;;;;;5.37;2.42;;;;;;;5.00;56.91;99296.97;4303878;33;33627;-84
2021/04/28 02:11:19;;;;;;;6.53;2.95;;;;;;;4.85;57.19;99299.41;4305306;33;34639;-84
2021/04/28 02:14:05;;;;;;;3.62;2.50;;;;;;;4.94;57.06;99293.09;4292931;33;33728;-84
2021/04/28 02:16:45;;;;;;;4.50;3.00;;;;;;;5.02;56.31;99289.59;4297670;33;34965;-96
2021/04/28 02:19:21;;;;;;;2.83;2.40;;;;;;;5.22;56.03;99281.28;4297088;33;33992;-96
2021/04/28 02:22:02;;;;;;;3.72;2.87;;;;;;;5.04;55.95;99287.56;4296022;33;36956;-84
2021/04/28 02:24:36;;;;;;;5.47;3.37;;;;;;;4.98;55.90;99285.56;4310491;33;33078;-90
2021/04/28 02:27:14;;;;;;;3.60;2.70;;;;;;;4.89;56.59;99284.69;4297140;33;34521;-84
2021/04/28 02:29:49;;;;;;;6.30;2.92;;;;;;;4.87;56.73;99278.66;4293248;33;35135;-85
2021/04/28 02:32:22;;;;;;;11.57;3.12;;;;;;;4.89;56.97;99281.19;4305456;33;33331;-84
2021/04/28 02:34:59;;;;;;;5.55;2.65;;;;;;;4.36;58.18;99283.13;4304242;33;33969;-95
2021/04/28 02:37:33;;;;;;;5.60;2.95;;;;;;;4.69;56.87;99283.28;4292501;33;33953;-84
2021/04/28 02:40:13;;;;;;;9.13;3.47;;;;;;;4.76;56.84;99287.81;4303373;33;33706;-96
2021/04/28 02:42:49;;;;;;;6.57;3.37;;;;;;;4.90;56.69;99289.03;4292667;33;34482;-95
2021/04/28 02:45:27;;;;;;;4.50;3.08;;;;;;;4.68;57.21;99277.06;4292886;33;35849;-95
2021/04/28 02:48:01;;;;;;;5.07;2.30;;;;;;;4.77;56.94;99283.31;4293979;33;34626;-84
2021/04/28 02:50:35;;;;;;;6.32;2.85;;;;;;;4.45;57.89;99284.00;4306721;33;33544;-84
2021/04/28 02:53:09;;;;;;;6.00;3.28;;;;;;;4.89;56.71;99287.34;4319463;33;34314;-84
2021/04/28 02:55:58;;;;;;;6.70;3.05;;;;;;;4.75;57.00;99282.63;4307041;33;35709;-84
2021/04/28 02:58:32;;;;;;;5.30;2.95;;;;;;;5.04;55.99;99284.91;4305810;33;34692;-96
2021/04/28 03:01:09;;;;;;;4.78;2.42;;;;;;;4.84;56.52;99284.34;4306389;33;36619;-90
2021/04/28 03:03:42;;;;;;;6.95;3.67;;;;;;;4.73;56.87;99282.81;4282667;33;34237;-96
2021/04/28 03:06:16;;;;;;;6.85;3.00;;;;;;;4.85;56.33;99286.03;4283134;33;34390;-96
2021/04/28 03:08:51;;;;;;;4.45;2.83;;;;;;;4.37;58.08;99290.13;4288119;33;32222;-93
2021/04/28 03:11:26;;;;;;;3.65;2.33;;;;;;;4.33;58.07;99286.94;4283274;33;35106;-95
2021/04/28 03:14:00;;;;;;;6.05;2.60;;;;;;;4.35;57.96;99284.09;4305459;33;32770;-84
2021/04/28 03:16:33;;;;;;;3.80;2.78;;;;;;;4.30;57.85;99287.25;4307212;33;34038;-95
2021/04/28 03:19:08;;;;;;;3.80;2.42;;;;;;;4.82;56.86;99285.50;4306603;33;34211;-85
2021/04/28 03:21:44;;;;;;;3.85;2.53;;;;;;;4.60;57.18;99287.75;4306730;33;33703;-84
2021/04/28 03:24:18;;;;;;;3.97;2.50;;;;;;;4.82;56.56;99280.12;4308341;33;33665;-96
2021/04/28 03:27:10;;;;;;;10.63;4.40;;;;;;;4.87;56.14;99283.19;4299516;33;34381;-85
2021/04/28 03:29:43;;;;;;;4.73;2.90;;;;;;;4.96;56.28;99282.22;4337377;33;33578;-83
2021/04/28 03:32:16;;;;;;;4.60;2.80;;;;;;;4.97;55.93;99277.69;4335714;33;33492;-96
2021/04/28 03:34:51;;;;;;;5.43;2.50;;;;;;;5.00;56.20;99291.59;4323148;33;33835;-85
2021/04/28 03:37:23;;;;;;;3.17;2.30;;;;;;;4.94;56.25;99284.22;4348667;33;33119;-84
2021/04/28 03:39:56;;;;;;;5.78;3.00;;;;;;;4.89;56.45;99278.50;4335512;33;33677;-96
2021/04/28 03:42:31;;;;;;;3.60;2.70;;;;;;;5.10;55.67;99273.56;4321488;33;35656;-85
2021/04/28 03:45:06;;;;;;;6.68;2.72;;;;;;;5.17;55.21;99275.56;4344771;33;33245;-93
2021/04/28 03:47:39;;;;;;;3.50;2.25;;;;;;;4.94;55.81;99281.53;4330389;33;34002;-83
2021/04/28 03:50:12;;;;;;;3.20;2.05;;;;;;;4.94;55.92;99284.22;4338430;33;33915;-84
2021/04/28 03:52:48;;;;;;;4.12;2.70;;;;;;;4.90;56.14;99289.03;4333399;33;33801;-96
2021/04/28 03:55:22;;;;;;;5.05;2.70;;;;;;;4.66;56.44;99289.78;4320693;33;32461;-96
2021/04/28 03:57:56;;;;;;;4.50;2.87;;;;;;;5.23;54.66;99285.63;4297176;33;33519;-95
2021/04/28 04:00:29;;;;;;;4.70;3.37;;;;;;;5.24;54.69;99296.19;4320922;33;32258;-96
2021/04/28 04:03:05;;;;;;;3.83;2.45;;;;;;;4.98;55.59;99293.59;4332507;33;34321;-84
2021/04/28 04:05:40;;;;;;;4.93;2.17;;;;;;;5.17;55.27;99287.13;4320804;33;33431;-84
2021/04/28 04:08:16;;;;;;;5.95;2.87;;;;;;;5.09;55.22;99293.31;4320809;33;32884;-96
2021/04/28 04:10:50;;;;;;;4.85;3.45;;;;;;;5.10;55.61;99294.13;4331091;33;33537;-96
2021/04/28 04:13:26;;;;;;;5.15;3.25;;;;;;;5.29;55.34;99287.66;4331942;33;36900;-84
2021/04/28 04:15:58;;;;;;;4.55;2.53;;;;;;;5.49;54.74;99298.91;4320161;33;35394;-85
2021/04/28 04:18:32;;;;;;;6.37;3.53;;;;;;;5.26;55.18;99298.69;4320767;33;34783;-96
2021/04/28 04:21:05;;;;;;;5.70;3.37;;;;;;;5.29;54.85;99303.72;4331825;33;33919;-84
2021/04/28 04:23:38;;;;;;;6.40;3.08;;;;;;;5.28;54.31;99302.03;4332375;33;33706;-84
2021/04/28 04:26:11;;;;;;;6.62;3.47;;;;;;;5.37;50.89;99297.53;4333102;33;33349;-96
2021/04/28 04:28:49;;;;;;;6.30;3.55;;;;;;;5.80;48.78;99295.59;4338132;33;35323;-95
2021/04/28 04:31:27;;;;;;;;;;;;;;;5.98;47.40;99292.75;4337359;33;33553;-94
2021/04/28 04:34:16;;;;;;;9.10;3.50;;;;;;;6.51;46.97;99294.03;4303760;33;35205;-96
2021/04/28 04:37:15;;;;;;;7.90;2.72;;;;;;;6.77;46.30;99295.59;4264252;33;32345;-88
2021/04/28 04:39:48;;;;;;;9.43;3.53;;;;;;;7.24;44.96;99302.78;4274425;33;34412;-96
2021/04/28 04:42:38;;;;;;;13.82;3.72;;;;;;;7.11;43.44;99305.22;4294148;33;34736;-93
2021/04/28 04:45:12;;;;;;;11.80;3.67;;;;;;;7.20;42.37;99301.47;4300843;33;34135;-96
2021/04/28 04:47:45;;;;;;;5.65;3.40;;;;;;;7.57;42.13;99299.91;4302676;33;34953;-95
2021/04/28 04:50:38;;;;;;;7.97;3.78;;;;;;;7.86;42.44;99298.31;4297707;33;33798;-95
2021/04/28 04:53:17;;;;;;;6.15;3.33;;;;;;;8.26;41.50;99306.22;4290100;33;34688;-96
2021/04/28 04:56:13;;;;;;;6.03;3.80;;;;;;;8.42;40.69;99299.84;4294481;33;32920;-96
2021/04/28 05:07:27;;;;;;;9.23;3.85;;;;;;;8.68;39.22;99293.19;4274867;33;33414;-96
2021/04/28 05:10:43;;;;;;;6.03;4.50;;;;;;;9.25;39.07;99295.19;4267527;33;32405;-93
2021/04/28 05:13:44;;;;;;;9.48;5.18;;;;;;;8.86;38.42;99288.25;4261902;33;33634;-96
2021/04/28 05:16:22;;;;;;;6.15;4.07;;;;;;;9.12;39.48;99292.31;4272624;33;34709;-92
2021/04/28 05:19:01;;;;;;;8.35;3.90;;;;;;;9.44;37.13;99287.47;4246584;33;33028;-96
2021/04/28 05:22:25;;;;;;;8.70;4.10;;;;;;;9.66;38.32;99288.34;4259399;33;33970;-96
2021/04/28 05:25:09;;;;;;;5.15;4.07;;;;;;;9.82;38.06;99293.47;4266056;33;33903;-95
2021/04/28 05:27:56;;;;;;;8.05;3.90;;;;;;;9.82;37.50;99292.63;4218311;33;33539;-94
2021/04/28 05:30:56;;;;;;;5.62;3.95;;;;;;;9.54;37.73;99288.00;4260270;33;32672;-94
2021/04/28 05:33:52;;;;;;;11.43;4.85;;;;;;;9.42;36.96;99284.16;4243785;33;34250;-96
2021/04/28 05:36:29;;;;;;;9.52;4.10;;;;;;;9.98;37.75;99288.84;4246001;33;32845;-96
2021/04/28 05:39:25;;;;;;;8.48;4.00;;;;;;;10.32;36.51;99285.34;4283679;33;32126;-95
2021/04/28 05:42:01;;;;;;;12.23;4.40;;;;;;;10.37;36.56;99282.94;4302910;33;34255;-95
2021/04/28 05:46:03;;;;;;;9.57;4.97;;;;;;;10.20;35.82;99286.94;4276363;33;33434;-96
2021/04/28 05:49:11;;;;;;;8.73;4.03;;;;;;;10.46;36.46;99288.19;4331157;27;32612;-96
2021/04/28 05:52:24;;;;;;;5.85;4.25;;;;;;;10.45;35.51;99290.06;4289504;33;36131;-95
2021/04/28 05:55:00;;;;;;;10.85;4.18;;;;;;;10.39;36.26;99288.97;4301794;33;33371;-95
2021/04/28 06:01:21;;;;;;;10.07;5.12;;;;;;;10.44;35.39;99274.06;4288671;33;33691;-95
2021/04/28 06:04:13;;;;;;;7.22;4.55;;;;;;;10.77;35.12;99288.56;4289860;33;33391;-96
2021/04/28 06:06:48;;;;;;;7.07;4.18;;;;;;;10.62;34.74;99277.06;4316231;33;34191;-96
2021/04/28 06:09:40;;;;;;;7.40;4.05;;;;;;;10.88;34.74;99291.75;4315251;33;35547;-96
2021/04/28 06:12:45;;;;;;;14.10;4.35;;;;;;;11.36;34.90;99288.19;4298551;33;33179;-94
2021/04/28 06:15:22;;;;;;;8.60;4.80;;;;;;;11.34;34.21;99285.69;4298021;33;34340;-95
2021/04/28 06:18:05;;;;;;;8.82;4.00;;;;;;;11.71;34.32;99288.09;4281937;33;32548;-93
2021/04/28 06:20:41;;;;;;;10.13;4.62;;;;;;;12.00;33.29;99284.16;4284482;33;34217;-95
2021/04/28 06:23:15;;;;;;;8.10;4.75;;;;;;;12.11;34.21;99283.56;4285225;33;34361;-84
2021/04/28 06:25:49;;;;;;;9.18;4.15;;;;;;;11.65;33.58;99282.44;4294766;33;34153;-92
2021/04/28 06:28:24;;;;;;;16.87;8.60;;;;;;;11.97;32.26;99281.88;4271196;33;34283;-88
2021/04/28 06:31:05;;;;;;;21.10;11.52;;;;;;;12.74;33.49;99284.09;4285413;33;33337;-92
2021/04/28 06:33:51;;;;;;;23.70;12.98;;;;;;;12.17;31.78;99287.28;4284047;33;36131;-91
2021/04/28 06:36:31;;;;;;;11.63;6.70;;;;;;;12.67;31.61;99286.81;4277245;33;35311;-91
2021/04/28 06:39:08;;;;;;;7.82;4.30;;;;;;;13.42;31.79;99289.06;4290904;33;34611;-94
2021/04/28 06:41:51;;;;;;;6.22;4.25;;;;;;;13.48;32.35;99281.94;4276997;33;33445;-92
2021/04/28 06:44:25;;;;;;;16.00;4.25;;;;;;;13.20;30.63;99289.38;4276723;33;34263;-93
2021/04/28 06:47:04;;;;;;;11.65;4.18;;;;;;;13.69;30.45;99280.78;4273469;33;32575;-91
2021/04/28 06:49:54;;;;;;;46.95;22.95;;;;;;;13.83;30.54;99274.22;4266487;33;33439;-92
2021/04/28 06:52:33;;;;;;;48.40;21.33;;;;;;;13.57;30.69;99281.47;4288659;33;34130;-91
2021/04/28 06:55:18;;;;;;;17.45;8.35;;;;;;;14.08;29.29;99289.69;4298041;33;33984;-93
2021/04/28 06:57:57;;;;;;;22.25;8.73;;;;;;;13.55;30.04;99288.19;4280386;33;32263;-92
2021/04/28 07:00:50;;;;;;;12.20;5.35;;;;;;;13.96;29.61;99281.41;4279298;33;35690;-92
2021/04/28 07:03:33;;;;;;;13.15;4.78;;;;;;;14.21;29.89;99284.13;4288857;33;35399;-95
2021/04/28 07:06:19;;;;;;;13.13;5.80;;;;;;;14.58;30.77;99277.94;4287314;33;33677;-92
2021/04/28 07:09:02;;;;;;;16.90;8.18;;;;;;;14.43;28.83;99278.28;4276117;33;35946;-93
2021/04/28 07:11:50;;;;;;;13.43;6.25;;;;;;;14.20;30.11;99279.75;4283880;33;34108;-93
2021/04/28 07:14:29;;;;;;;12.65;5.62;;;;;;;14.34;28.52;99276.91;4276835;33;34600;-95
2021/04/28 07:17:09;;;;;;;8.10;4.55;;;;;;;14.86;29.37;99290.22;4286466;33;32947;-90
2021/04/28 07:19:49;;;;;;;11.45;5.22;;;;;;;14.42;28.39;99279.34;4277699;33;34332;-95
2021/04/28 07:22:28;;;;;;;11.02;4.93;;;;;;;15.00;30.09;99270.81;4288685;33;33684;-90
2021/04/28 07:25:14;;;;;;;9.43;4.87;;;;;;;14.92;28.10;99271.09;4311620;33;34690;-93
2021/04/28 07:27:50;;;;;;;14.45;5.65;;;;;;;15.24;28.99;99267.34;4274302;33;34271;-90
2021/04/28 07:30:24;;;;;;;13.43;4.65;;;;;;;15.12;28.67;99273.59;4288123;33;33534;-93
2021/04/28 07:32:58;;;;;;;8.07;4.28;;;;;;;15.24;28.16;99270.94;4272755;33;33034;-91
2021/04/28 07:35:34;;;;;;;7.22;3.90;;;;;;;15.22;27.09;99277.66;4286178;33;33694;-95
2021/04/28 07:38:13;;;;;;;13.05;6.53;;;;;;;15.71;28.23;99282.00;4300773;33;34059;-89
2021/04/28 07:40:45;;;;;;;17.70;7.78;;;;;;;15.88;25.95;99278.63;4276312;33;33126;-89
2021/04/28 07:43:21;;;;;;;26.00;8.93;;;;;;;15.72;26.22;99271.94;4293147;33;33509;-89
2021/04/28 07:45:54;;;;;;;22.15;8.60;;;;;;;15.86;27.23;99272.59;4287972;33;33712;-94
2021/04/28 07:48:48;;;;;;;21.92;6.65;;;;;;;15.82;25.38;99282.28;4307179;33;34673;-94
2021/04/28 07:51:22;;;;;;;11.65;4.87;;;;;;;15.47;26.28;99282.97;4291459;33;33590;-93
2021/04/28 07:54:10;;;;;;;11.95;5.07;;;;;;;15.65;26.21;99282.91;4289272;33;36555;-90
2021/04/28 07:56:46;;;;;;;8.48;4.12;;;;;;;15.54;26.25;99289.19;4290018;33;33647;-94
2021/04/28 07:59:20;;;;;;;14.50;5.97;;;;;;;15.91;26.72;99288.25;4301172;33;33672;-95
2021/04/28 08:01:52;;;;;;;8.05;3.47;;;;;;;16.12;25.80;99286.84;4287352;33;33701;-91
2021/04/28 08:04:26;;;;;;;10.32;3.75;;;;;;;15.52;25.82;99288.56;4298604;33;34196;-90
2021/04/28 08:07:01;;;;;;;7.32;3.50;;;;;;;15.87;25.15;99290.63;4302632;33;36040;-94
2021/04/28 08:10:48;;;;;;;4.70;3.15;;;;;;;15.88;24.80;99295.84;4198929;27;33659;-94
2021/04/28 08:13:21;;;;;;;9.50;5.18;;;;;;;15.50;24.50;99296.12;4286752;33;34312;-95
2021/04/28 08:16:07;;;;;;;10.10;4.07;;;;;;;15.60;24.35;99303.75;4261440;33;33523;-94
2021/04/28 08:18:43;;;;;;;11.10;5.18;;;;;;;15.84;25.42;99296.53;4273279;33;35773;-94
2021/04/28 08:21:37;;;;;;;12.63;6.15;;;;;;;16.26;26.39;99298.38;4291188;33;34307;-90
2021/04/28 08:24:11;;;;;;;14.38;5.68;;;;;;;16.10;24.80;99295.28;4277769;33;33160;-89
2021/04/28 08:26:45;;;;;;;9.38;3.58;;;;;;;15.89;25.17;99289.28;4290150;33;34919;-93
2021/04/28 08:29:21;;;;;;;6.93;3.10;;;;;;;15.66;25.03;99290.03;4278235;33;34585;-92
2021/04/28 08:32:14;;;;;;;4.75;3.42;;;;;;;15.63;25.02;99295.97;4308488;33;35872;-92
2021/04/28 08:34:47;;;;;;;7.35;2.60;;;;;;;15.71;26.23;99292.06;4291150;33;34912;-91
2021/04/28 08:37:27;;;;;;;9.25;3.70;;;;;;;15.96;24.99;99291.09;4281635;33;36347;-92
2021/04/28 08:40:00;;;;;;;9.70;5.28;;;;;;;16.17;25.79;99292.44;4302325;33;35020;-93
2021/04/28 08:42:59;;;;;;;18.05;8.70;;;;;;;16.63;25.57;99285.34;4233398;33;36859;-90
2021/04/28 08:45:32;;;;;;;19.23;7.30;;;;;;;15.68;25.24;99292.53;4296547;33;35956;-93
2021/04/28 08:49:11;;;;;;;14.65;6.03;;;;;;;15.54;25.71;99297.34;4267485;33;33584;-93
2021/04/28 08:51:45;;;;;;;22.77;8.00;;;;;;;15.82;26.01;99287.75;4276849;33;34848;-89
2021/04/28 08:54:23;;;;;;;15.05;6.18;;;;;;;15.86;25.39;99276.13;4298458;33;34497;-93
2021/04/28 08:56:58;;;;;;;20.77;9.82;;;;;;;15.84;25.70;99274.72;4278743;33;32840;-89
2021/04/28 08:59:32;;;;;;;8.80;3.97;;;;;;;16.04;25.25;99285.31;4282205;33;32533;-93
2021/04/28 09:02:13;;;;;;;9.45;4.90;;;;;;;16.56;25.30;99276.47;4294801;33;33112;-93
2021/04/28 09:05:11;;;;;;;16.00;8.15;;;;;;;17.21;25.97;99280.03;4309109;33;32668;-94
2021/04/28 09:08:09;;;;;;;18.10;9.23;;;;;;;17.31;24.53;99276.69;4273899;33;32014;-93
2021/04/28 09:10:48;;;;;;;7.20;4.37;;;;;;;18.05;23.76;99282.16;4287674;33;34483;-91
2021/04/28 09:13:22;;;;;;;5.03;3.45;;;;;;;17.46;22.53;99275.06;4280002;33;33630;-93
2021/04/28 09:15:56;;;;;;;4.87;3.47;;;;;;;17.54;22.72;99271.13;4290846;33;33554;-93
2021/04/28 09:18:35;;;;;;;6.90;3.62;;;;;;;17.44;24.08;99277.22;4290198;33;34283;-89
2021/04/28 09:21:16;;;;;;;8.10;4.07;;;;;;;17.22;23.50;99268.06;4277715;33;33767;-94
2021/04/28 09:23:50;;;;;;;8.52;3.17;;;;;;;17.17;22.98;99271.53;4269104;33;33944;-94
2021/04/28 09:26:45;;;;;;;10.95;4.80;;;;;;;17.36;22.79;99263.94;4265887;33;34404;-93
2021/04/28 09:29:27;;;;;;;20.60;11.50;;;;;;;18.42;24.30;99258.97;4280374;33;33428;-93
2021/04/28 09:33:01;;;;;;;26.58;14.20;;;;;;;18.12;22.88;99266.41;4022523;33;34494;-94
2021/04/28 09:35:37;;;;;;;18.95;8.52;;;;;;;18.89;24.73;99258.53;4273330;33;34854;-93
2021/04/28 09:38:11;;;;;;;14.98;7.65;;;;;;;18.44;22.15;99246.69;4268123;33;33793;-93
2021/04/28 09:40:59;;;;;;;7.93;4.28;;;;;;;19.41;21.76;99255.31;4289313;33;34517;-93
2021/04/28 09:43:36;;;;;;;6.68;3.22;;;;;;;18.79;22.24;99253.72;4282572;33;35107;-91
2021/04/28 09:46:11;;;;;;;5.95;3.15;;;;;;;18.64;20.50;99259.00;4291974;33;34854;-94
2021/04/28 09:49:00;;;;;;;7.05;4.25;;;;;;;19.10;21.37;99254.16;4258394;33;33399;-92
2021/04/28 09:51:56;;;;;;;4.15;3.17;;;;;;;18.90;20.44;99253.91;4284584;33;33367;-93
2021/04/28 09:54:45;;;;;;;;;;;;;;;19.07;20.25;99242.88;4289511;33;33487;-93
2021/04/28 09:57:36;;;;;;;12.82;5.35;;;;;;;19.78;20.88;99248.31;4301524;33;33886;-89
2021/04/28 10:00:22;;;;;;;11.75;4.47;;;;;;;19.09;19.66;99241.53;4290225;33;33638;-94
2021/04/28 10:03:10;;;;;;;10.05;5.05;;;;;;;19.02;20.71;99240.91;4299397;33;32286;-93
2021/04/28 10:05:45;;;;;;;8.25;4.05;;;;;;;19.27;20.66;99242.31;4281524;33;32813;-89
2021/04/28 10:08:28;;;;;;;6.60;4.00;;;;;;;19.01;20.22;99244.72;4288522;33;33416;-95
2021/04/28 10:11:05;;;;;;;7.97;3.28;;;;;;;19.21;21.17;99250.44;4289193;33;33991;-94
2021/04/28 10:13:39;;;;;;;10.45;4.35;;;;;;;18.66;21.57;99248.63;4263727;33;33671;-94
2021/04/28 10:16:14;;;;;;;8.85;3.97;;;;;;;18.68;21.61;99249.19;4288885;33;33377;-93
2021/04/28 10:18:51;;;;;;;4.18;3.17;;;;;;;18.52;21.57;99248.97;4275857;33;34571;-93
2021/04/28 10:21:25;;;;;;;7.75;4.37;;;;;;;19.37;21.80;99247.88;4288041;33;34715;-94
2021/04/28 10:24:18;;;;;;;6.37;4.32;;;;;;;19.72;20.62;99239.19;4289014;33;32867;-94
2021/04/28 10:27:12;;;;;;;9.50;4.15;;;;;;;19.91;20.87;99236.06;4297858;33;35619;-95
2021/04/28 10:29:59;;;;;;;7.78;3.78;;;;;;;19.79;21.36;99232.69;4289835;33;34181;-94
2021/04/28 10:32:32;;;;;;;8.27;4.10;;;;;;;19.62;21.30;99238.28;4299410;33;34683;-94
2021/04/28 10:35:23;;;;;;;9.10;4.12;;;;;;;19.74;20.38;99236.19;4291274;33;32503;-96
2021/04/28 10:38:34;;;;;;;6.68;3.75;;;;;;;19.51;21.23;99229.94;4264567;33;33310;-95
2021/04/28 10:42:57;;;;;;;7.80;3.67;;;;;;;20.35;21.28;99226.81;1614685;27;20072;-96
2021/04/28 10:46:01;;;;;;;6.50;3.25;;;;;;;20.16;21.20;99227.22;4245836;33;34504;-95
2021/04/28 10:49:44;;;;;;;6.60;4.18;;;;;;;20.60;20.50;99220.66;4267364;33;32462;-94
2021/04/28 10:52:46;;;;;;;8.30;3.60;;;;;;;20.11;20.87;99213.50;4270115;33;32779;-95
2021/04/28 10:55:45;;;;;;;6.93;3.90;;;;;;;20.95;20.92;99214.53;4261158;33;34318;-96
2021/04/28 10:59:48;;;;;;;;;;;;;;;;;;;;;
2021/04/28 11:03:39;;;;;;;4.80;3.20;;;;;;;20.96;19.13;99218.94;4312803;28;20164;-96
2021/04/28 11:06:55;;;;;;;5.45;3.25;;;;;;;21.37;21.73;99220.16;4300223;33;20980;-94
2021/04/28 11:35:51;;;;;;;6.40;3.85;;;;;;;22.71;18.88;99196.19;4797545;28;20100;31
2021/04/28 11:48:30;;;;;;;8.88;4.05;;;;;;;21.60;19.97;99189.44;4140608;34;33810;-95
2021/04/28 11:51:46;;;;;;;6.70;4.15;;;;;;;21.18;21.21;99184.94;4163259;34;34390;-95
2021/04/28 11:54:34;;;;;;;7.07;3.70;;;;;;;20.86;20.84;99177.69;4190351;34;33631;-96
2021/04/28 11:57:34;;;;;;;7.70;3.72;;;;;;;21.22;20.04;99182.47;4271496;33;34189;-94
2021/04/28 12:00:13;;;;;;;6.60;3.87;;;;;;;21.10;20.43;99174.47;4280274;33;34408;-94
2021/04/28 12:03:15;;;;;;;7.68;3.75;;;;;;;21.96;20.33;99167.44;4245670;33;34159;-96
2021/04/28 12:06:40;;;;;;;9.75;3.80;;;;;;;22.21;19.86;99157.50;3234050;28;20199;-94
2021/04/28 12:09:44;;;;;;;6.50;3.75;;;;;;;21.60;19.99;99164.72;4278397;33;34203;-95
2021/04/28 12:12:23;;;;;;;8.68;4.47;;;;;;;22.14;19.90;99170.69;4269418;33;32855;-93
2021/04/28 12:15:21;;;;;;;6.47;4.10;;;;;;;23.30;22.79;99161.47;4270022;33;33374;-93
2021/04/28 12:18:06;;;;;;;6.35;3.65;;;;;;;23.93;19.10;99154.41;4257544;33;35569;-92
2021/04/28 12:20:57;;;;;;;8.43;4.30;;;;;;;23.61;18.65;99153.81;4265357;33;33826;-94
2021/04/28 12:23:32;;;;;;;6.47;4.05;;;;;;;23.58;18.80;99154.37;4268511;33;32987;-92
2021/04/28 12:26:13;;;;;;;7.80;4.22;;;;;;;23.66;19.13;99147.44;4256200;33;34479;-91
2021/04/28 12:28:55;;;;;;;4.70;3.22;;;;;;;24.09;18.76;99136.59;4279474;33;32900;-92
2021/04/28 12:31:47;;;;;;;9.43;3.97;;;;;;;23.93;18.76;99137.84;4263390;33;34286;-93
2021/04/28 12:34:29;;;;;;;7.12;3.60;;;;;;;23.79;18.42;99127.47;4280474;33;32583;-92
2021/04/28 12:37:25;;;;;;;7.15;3.97;;;;;;;25.41;18.87;99134.38;4269941;33;32717;-95
2021/04/28 12:40:08;;;;;;;7.25;4.18;;;;;;;23.93;18.72;99129.56;4281248;33;34459;-93
2021/04/28 12:42:59;;;;;;;6.68;4.37;;;;;;;24.06;19.19;99130.84;4282090;33;33505;-93
2021/04/28 12:45:40;;;;;;;11.00;4.85;;;;;;;24.43;19.53;99124.63;4286458;33;33363;-94
2021/04/28 12:48:24;;;;;;;7.45;3.78;;;;;;;24.03;19.07;99126.72;4271117;33;35253;-93
2021/04/28 12:51:17;;;;;;;7.78;4.50;;;;;;;23.85;19.31;99114.47;4271112;33;32863;-94
2021/04/28 12:54:04;;;;;;;7.43;4.05;;;;;;;24.14;18.82;99105.34;4290882;33;34475;-96
2021/04/28 12:56:49;;;;;;;7.03;4.25;;;;;;;24.43;20.17;99110.81;4287811;33;34467;-94
2021/04/28 12:59:38;;;;;;;6.00;3.85;;;;;;;24.22;19.26;99106.63;4315124;33;33474;-94
2021/04/28 13:02:18;;;;;;;8.65;3.35;;;;;;;24.78;18.21;99092.16;4298397;33;33827;-94
2021/04/28 13:05:03;;;;;;;6.00;3.85;;;;;;;24.23;19.42;99097.25;4314680;33;33671;-94
2021/04/28 13:07:36;;;;;;;14.82;9.07;;;;;;;25.14;19.49;99104.66;4292743;33;31824;-94
2021/04/28 13:13:29;;;;;;;6.57;3.53;;;;;;;26.25;18.35;99105.81;4288074;33;37113;-95
2021/04/28 13:16:31;;;;;;;5.97;3.83;;;;;;;25.28;19.29;99110.22;4309887;33;34996;-95
2021/04/28 13:19:07;;;;;;;7.65;3.60;;;;;;;26.00;18.74;99101.56;4299389;33;34266;-91
2021/04/28 13:21:59;;;;;;;5.47;3.67;;;;;;;25.61;19.04;99102.78;4319546;33;34450;-94
2021/04/28 13:24:34;;;;;;;6.90;4.20;;;;;;;26.01;18.64;99102.41;4308959;33;34514;-93
2021/04/28 13:27:14;;;;;;;9.63;3.65;;;;;;;27.07;18.37;99089.41;4318747;33;33526;-95
2021/04/28 13:30:05;;;;;;;11.55;3.97;;;;;;;26.31;18.74;99086.34;4303158;33;36080;-94
2021/04/28 13:32:48;;;;;;;8.82;3.92;;;;;;;27.64;18.97;99099.16;4308760;33;34614;-93
2021/04/28 13:35:27;;;;;;;8.07;3.60;;;;;;;27.37;18.66;99089.84;4302904;33;33737;-94
2021/04/28 13:38:15;;;;;;;9.32;3.65;;;;;;;27.37;18.40;99081.50;4311533;33;33226;-95
2021/04/28 13:40:50;;;;;;;7.12;4.22;;;;;;;27.64;17.84;99069.44;4312007;33;34612;-94
2021/04/28 13:43:25;;;;;;;6.90;3.62;;;;;;;27.19;18.56;99072.22;4290651;33;33155;-94